Terminal Aerodrome Forecast
Issued by NWS

Home | Current Version | Previous Version | Text Only | Print | Product List | Glossary On
Versions: 1 2 3 4 5 6 7 8 9 10 11 12 13 14 15 16 17 18 19 20 21 22 23 24 25 26 27 28 29 30 31 32 33 34 35 36 37 38
000
FTUS42 KRAH 040237 AAA
TAFINT
TAF AMD
KINT 040237Z 0403/0424 00000KT P6SM SCT250
      TEMPO 0408/0412 3SM BR
     FM041500 04005KT P6SM BKN050
      TEMPO 0421/0424 2SM SHRA BKN025=

USA.gov is the U.S. government's official web portal to all federal, state and local government web resources and services.